Terminal Aerodrome Forecast
Issued by NWS Northern Indiana

Home | Current Version | Previous Version | Text Only | Print | Product List | Glossary Off
Versions: 1 2 3 4 5 6 7 8 9 10 11 12 13 14 15 16

000
FTUS43 KIWX 301120
TAFFWA
TAF
KFWA 301120Z 3012/0112 VRB02KT 2SM BR BKN025
     FM301300 24006KT P6SM VCSH BKN020
     FM301900 28010KT P6SM SCT020 BKN040
     FM010200 28009KT P6SM BKN250
     FM010900 29006KT P6SM BKN020=

USA.gov is the U.S. government's official web portal to all federal, state and local government web resources and services.